createdAt,value
2022-11-29T00:00:56.653Z,55.80
2022-11-29T00:03:23.019Z,53.90
2022-11-29T00:05:49.491Z,53.38
2022-11-29T00:08:15.815Z,49.38
2022-11-29T00:10:42.200Z,54.92
2022-11-29T00:13:08.500Z,48.78
2022-11-29T00:15:39.490Z,52.17
2022-11-29T00:18:07.027Z,49.90
2022-11-29T00:20:34.736Z,53.42
2022-11-29T00:23:01.227Z,48.80
2022-11-29T00:25:27.883Z,50.03
2022-11-29T00:27:54.192Z,53.53
2022-11-29T00:30:20.906Z,48.03
2022-11-29T00:32:47.506Z,53.08
2022-11-29T00:35:14.282Z,50.70
2022-11-29T00:37:40.647Z,49.00
2022-11-29T00:40:07.686Z,52.92
2022-11-29T00:42:34.026Z,51.53
2022-11-29T00:45:00.355Z,48.40
2022-11-29T00:47:26.695Z,55.85
2022-11-29T00:49:53.008Z,56.00
2022-11-29T00:52:19.331Z,53.17
2022-11-29T00:54:46.038Z,51.72
2022-11-29T00:57:12.489Z,52.95
2022-11-29T00:59:38.786Z,53.38
2022-11-29T01:02:05.235Z,55.45
2022-11-29T01:04:31.606Z,51.25
2022-11-29T01:06:57.944Z,49.55
2022-11-29T01:09:24.254Z,54.90
2022-11-29T01:11:50.617Z,47.75
2022-11-29T01:14:16.921Z,52.05
2022-11-29T01:16:43.313Z,47.55
2022-11-29T01:19:09.694Z,46.97
2022-11-29T01:21:36.031Z,56.75
2022-11-29T01:24:02.408Z,49.72
2022-11-29T01:26:30.688Z,47.55
2022-11-29T01:28:58.641Z,49.15
2022-11-29T01:31:28.723Z,51.08
2022-11-29T01:33:56.742Z,52.63
2022-11-29T01:36:24.176Z,53.30
2022-11-29T01:38:51.250Z,53.72
2022-11-29T01:41:22.774Z,47.40
2022-11-29T01:44:06.014Z,49.67
2022-11-29T01:46:35.561Z,50.67
2022-11-29T01:49:08.140Z,52.58
2022-11-29T01:51:37.542Z,53.58
2022-11-29T01:54:05.720Z,48.00
2022-11-29T01:56:33.893Z,46.15
2022-11-29T01:59:04.142Z,50.58
2022-11-29T02:01:31.234Z,46.08
2022-11-29T02:03:59.030Z,46.15
2022-11-29T02:06:25.806Z,47.35
2022-11-29T02:08:52.190Z,48.60
2022-11-29T02:11:24.447Z,49.75
2022-11-29T02:14:02.025Z,52.85
2022-11-29T02:16:56.249Z,50.55
2022-11-29T02:19:47.918Z,50.03
2022-11-29T02:22:31.149Z,50.35
2022-11-29T02:25:23.244Z,46.22
2022-11-29T02:28:14.169Z,49.03
2022-11-29T02:30:52.593Z,56.53
2022-11-29T02:33:37.920Z,59.50
2022-11-29T02:39:08.078Z,47.38
2022-11-29T02:41:47.078Z,44.63
2022-11-29T02:44:16.072Z,49.50
2022-11-29T02:47:15.122Z,47.88
2022-11-29T02:50:11.665Z,48.72
2022-11-29T02:53:02.282Z,47.28
2022-11-29T02:55:28.537Z,52.05
2022-11-29T02:58:13.590Z,45.53
2022-11-29T03:00:50.276Z,51.17
2022-11-29T03:03:46.297Z,54.88
2022-11-29T03:06:23.303Z,61.55
2022-11-29T03:09:05.444Z,51.92
2022-11-29T03:11:45.513Z,59.97
2022-11-29T03:14:33.229Z,62.78
2022-11-29T03:17:31.254Z,60.92
2022-11-29T03:20:19.385Z,58.80
2022-11-29T03:22:52.011Z,58.05
2022-11-29T03:25:38.698Z,69.53
2022-11-29T03:28:13.428Z,56.17
2022-11-29T03:30:48.835Z,64.63
2022-11-29T03:33:44.930Z,62.05
2022-11-29T03:36:39.952Z,71.60
2022-11-29T03:39:11.025Z,64.20
2022-11-29T03:41:48.317Z,75.50
2022-11-29T03:44:31.640Z,70.32
2022-11-29T03:47:13.069Z,71.47
2022-11-29T03:49:48.219Z,85.63
2022-11-29T03:52:23.712Z,84.10
2022-11-29T03:55:22.039Z,72.72
2022-11-29T03:58:00.260Z,80.80
2022-11-29T04:00:34.089Z,68.55
2022-11-29T04:03:15.616Z,69.65
2022-11-29T04:05:54.162Z,77.50
2022-11-29T04:08:48.406Z,72.65
2022-11-29T04:11:44.987Z,77.95
2022-11-29T04:14:14.017Z,84.20
2022-11-29T04:17:02.402Z,70.18
2022-11-29T04:19:59.017Z,85.30
2022-11-29T04:22:58.316Z,95.22
2022-11-29T04:25:52.434Z,84.95
2022-11-29T04:28:46.519Z,88.35
2022-11-29T04:31:31.467Z,85.03
2022-11-29T04:34:25.536Z,96.72
2022-11-29T04:37:46.212Z,84.63
2022-11-29T04:40:26.134Z,91.50
2022-11-29T04:43:17.628Z,93.97
2022-11-29T04:46:00.722Z,104.50
2022-11-29T04:48:33.009Z,107.47
2022-11-29T04:51:10.114Z,100.82
2022-11-29T04:53:51.814Z,96.88
2022-11-29T04:56:44.646Z,99.57
2022-11-29T04:59:43.013Z,107.57
2022-11-29T05:02:32.597Z,99.10
2022-11-29T05:05:04.209Z,106.00
2022-11-29T05:07:49.553Z,103.95
2022-11-29T05:10:36.172Z,112.03
2022-11-29T05:13:24.986Z,99.13
2022-11-29T05:16:00.521Z,105.18
2022-11-29T05:18:44.837Z,102.90
2022-11-29T05:21:16.674Z,110.38
2022-11-29T05:24:09.480Z,116.55
2022-11-29T05:26:49.057Z,120.45
2022-11-29T05:29:29.533Z,101.32
2022-11-29T05:32:05.912Z,111.30
2022-11-29T05:34:50.353Z,115.15
2022-11-29T05:37:31.344Z,127.38
2022-11-29T05:40:15.672Z,111.18
2022-11-29T05:43:19.584Z,105.13
2022-11-29T05:46:03.137Z,112.55
2022-11-29T05:48:53.767Z,110.13
2022-11-29T05:51:30.682Z,110.55
2022-11-29T05:54:54.096Z,111.72
2022-11-29T05:57:43.763Z,101.32
2022-11-29T06:00:12.966Z,97.68
2022-11-29T06:03:01.499Z,95.10
2022-11-29T06:05:48.181Z,101.75
2022-11-29T06:08:48.135Z,84.75
2022-11-29T06:11:24.621Z,106.78
2022-11-29T06:14:14.161Z,103.38
2022-11-29T06:17:18.030Z,104.05
2022-11-29T06:19:53.276Z,113.55
2022-11-29T06:22:44.099Z,96.57
2022-11-29T06:25:22.975Z,108.75
2022-11-29T06:28:17.477Z,107.90
2022-11-29T06:30:59.766Z,107.60
2022-11-29T06:33:35.201Z,96.30
2022-11-29T06:36:22.946Z,106.70
2022-11-29T06:38:49.469Z,102.80
2022-11-29T06:41:22.623Z,94.53
2022-11-29T06:43:50.191Z,99.60
2022-11-29T06:46:37.949Z,89.65
2022-11-29T06:49:14.094Z,86.70
2022-11-29T06:52:17.761Z,95.57
2022-11-29T06:54:47.171Z,98.30
2022-11-29T06:57:23.786Z,103.10
2022-11-29T07:00:17.818Z,103.70
2022-11-29T07:03:08.940Z,104.38
2022-11-29T07:05:35.876Z,102.40
2022-11-29T07:08:29.921Z,95.22
2022-11-29T07:10:56.597Z,105.82
2022-11-29T07:13:23.280Z,100.65
2022-11-29T07:16:01.242Z,102.47
2022-11-29T07:18:51.604Z,89.90
2022-11-29T07:21:48.253Z,96.30
2022-11-29T07:24:33.594Z,96.10
2022-11-29T07:30:14.430Z,97.88
2022-11-29T07:33:00.604Z,84.82
2022-11-29T07:35:48.298Z,86.57
2022-11-29T07:38:47.012Z,89.28
2022-11-29T07:41:39.177Z,78.47
2022-11-29T07:44:18.463Z,92.97
2022-11-29T07:46:44.833Z,83.55
2022-11-29T07:49:11.205Z,83.55
2022-11-29T07:51:37.640Z,82.60
2022-11-29T07:54:04.368Z,94.38
2022-11-29T07:56:30.727Z,81.75
2022-11-29T07:58:57.099Z,82.03
2022-11-29T08:01:23.572Z,81.55
2022-11-29T08:03:50.029Z,81.30
2022-11-29T08:06:16.348Z,78.32
2022-11-29T08:08:44.302Z,78.68
2022-11-29T08:11:14.082Z,76.72
2022-11-29T08:13:40.382Z,78.72
2022-11-29T08:16:07.069Z,84.45
2022-11-29T08:18:33.419Z,79.40
2022-11-29T08:21:05.593Z,86.55
2022-11-29T08:23:31.913Z,75.22
2022-11-29T08:26:04.370Z,76.18
2022-11-29T08:28:30.669Z,76.90
2022-11-29T08:31:02.219Z,79.72
2022-11-29T08:33:29.236Z,76.65
2022-11-29T08:35:56.226Z,81.18
2022-11-29T08:38:22.773Z,85.20
2022-11-29T08:40:49.109Z,78.20
2022-11-29T08:43:15.414Z,73.82
2022-11-29T08:45:41.771Z,70.53
2022-11-29T08:48:08.124Z,69.07
2022-11-29T08:50:34.421Z,75.78
2022-11-29T08:53:00.751Z,72.65
2022-11-29T08:55:31.122Z,66.78
2022-11-29T08:58:03.972Z,67.05
2022-11-29T09:00:31.265Z,70.00
2022-11-29T09:02:57.634Z,65.70
2022-11-29T09:05:24.061Z,78.65
2022-11-29T09:07:50.476Z,72.22
2022-11-29T09:10:16.898Z,72.18
2022-11-29T09:12:43.282Z,81.82
2022-11-29T09:15:10.335Z,73.60
2022-11-29T09:17:36.731Z,71.47
2022-11-29T09:20:04.113Z,76.85
2022-11-29T09:22:31.217Z,72.32
2022-11-29T09:24:57.523Z,76.10
2022-11-29T09:27:23.871Z,74.60
2022-11-29T09:29:50.173Z,69.68
2022-11-29T09:32:16.502Z,82.93
2022-11-29T09:34:42.915Z,77.85
2022-11-29T09:37:09.501Z,76.78
2022-11-29T09:39:35.814Z,90.13
2022-11-29T09:42:39.566Z,81.28
2022-11-29T09:45:19.313Z,81.07
2022-11-29T09:48:24.547Z,79.55
2022-11-29T09:50:53.898Z,83.85
2022-11-29T09:53:49.429Z,77.82
2022-11-29T09:56:24.073Z,74.70
2022-11-29T09:58:59.006Z,85.45
2022-11-29T10:04:00.239Z,77.22
2022-11-29T10:06:31.377Z,72.50
2022-11-29T10:09:16.926Z,78.45
2022-11-29T10:12:03.181Z,79.88
2022-11-29T10:14:42.717Z,91.93
2022-11-29T10:17:38.320Z,94.53
2022-11-29T10:20:18.800Z,80.00
2022-11-29T10:22:54.544Z,73.35
2022-11-29T10:25:23.314Z,63.75
2022-11-29T10:27:49.804Z,61.63
2022-11-29T10:30:17.050Z,73.85
2022-11-29T10:32:46.463Z,73.20
2022-11-29T10:35:15.789Z,63.03
2022-11-29T10:37:43.919Z,75.70
2022-11-29T10:40:25.115Z,73.60
2022-11-29T10:42:52.214Z,68.28
2022-11-29T10:45:36.730Z,61.10
2022-11-29T10:48:11.259Z,62.97
2022-11-29T10:50:41.122Z,74.90
2022-11-29T10:53:11.119Z,64.97
2022-11-29T10:55:43.227Z,67.65
2022-11-29T10:58:16.656Z,71.95
2022-11-29T11:00:51.827Z,73.22
2022-11-29T11:03:29.070Z,71.00
2022-11-29T11:06:11.360Z,74.20
2022-11-29T11:08:41.162Z,74.68
2022-11-29T11:11:08.408Z,81.95
2022-11-29T11:13:36.464Z,73.32
2022-11-29T11:16:18.406Z,86.45
2022-11-29T11:18:46.952Z,72.75
2022-11-29T11:21:17.986Z,90.50
2022-11-29T11:23:59.785Z,84.88
2022-11-29T11:26:27.501Z,77.47
2022-11-29T11:28:59.838Z,92.93
2022-11-29T11:31:30.602Z,92.55
2022-11-29T11:33:57.466Z,84.57
2022-11-29T11:36:26.423Z,93.43
2022-11-29T11:38:55.994Z,86.20
2022-11-29T11:41:57.851Z,86.30
2022-11-29T11:44:51.237Z,78.82
2022-11-29T11:47:28.265Z,82.35
2022-11-29T11:50:07.865Z,77.95
2022-11-29T11:52:48.898Z,79.28
2022-11-29T11:55:40.379Z,76.32
2022-11-29T11:58:12.808Z,89.15
2022-11-29T12:01:04.076Z,63.65
2022-11-29T12:03:56.650Z,74.60
2022-11-29T12:06:39.293Z,79.32
2022-11-29T12:09:44.183Z,78.32
2022-11-29T12:12:17.990Z,72.35
2022-11-29T12:15:02.071Z,78.88
2022-11-29T12:17:34.265Z,73.57
2022-11-29T12:20:38.873Z,73.00
2022-11-29T12:23:21.674Z,64.63
2022-11-29T12:26:04.217Z,71.53
2022-11-29T12:28:33.563Z,79.07
2022-11-29T12:31:31.112Z,70.85
2022-11-29T12:34:22.383Z,81.05
2022-11-29T12:36:58.972Z,81.10
2022-11-29T12:39:40.674Z,78.03
2022-11-29T12:42:12.763Z,79.63
2022-11-29T12:44:51.913Z,80.90
2022-11-29T12:47:45.182Z,85.60
2022-11-29T12:53:06.565Z,78.95
2022-11-29T12:55:48.325Z,79.38
2022-11-29T12:58:42.753Z,79.03
2022-11-29T13:01:31.615Z,80.60
2022-11-29T13:04:00.986Z,85.68
2022-11-29T13:06:39.616Z,81.68
2022-11-29T13:09:31.435Z,71.78
2022-11-29T13:12:23.790Z,70.88
2022-11-29T13:14:56.462Z,75.00
2022-11-29T13:17:47.957Z,66.65
2022-11-29T13:20:17.241Z,80.60
2022-11-29T13:22:58.616Z,70.82
2022-11-29T13:25:30.163Z,69.45
2022-11-29T13:28:01.681Z,75.13
2022-11-29T13:30:28.089Z,70.47
2022-11-29T13:33:17.273Z,73.55
2022-11-29T13:35:54.480Z,64.45
2022-11-29T13:39:04.026Z,61.78
2022-11-29T13:41:34.572Z,66.97
2022-11-29T13:44:06.114Z,71.70
2022-11-29T13:46:46.726Z,62.90
2022-11-29T13:49:40.356Z,76.03
2022-11-29T13:52:06.884Z,71.43
2022-11-29T13:54:33.578Z,69.82
2022-11-29T13:57:08.510Z,72.65
2022-11-29T14:02:04.341Z,67.68
2022-11-29T14:04:39.260Z,61.92
2022-11-29T14:09:37.277Z,64.88
2022-11-29T14:12:23.868Z,57.67
2022-11-29T14:15:20.733Z,62.20
2022-11-29T14:17:50.525Z,61.40
2022-11-29T14:20:22.644Z,59.65
2022-11-29T14:23:04.392Z,61.67
2022-11-29T14:25:54.970Z,63.40
2022-11-29T14:28:21.252Z,63.30
2022-11-29T14:30:53.276Z,59.65
2022-11-29T14:33:35.261Z,57.95
2022-11-29T14:36:31.624Z,70.47
2022-11-29T14:39:13.024Z,59.83
2022-11-29T14:41:53.154Z,76.15
2022-11-29T14:44:28.185Z,65.20
2022-11-29T14:47:18.641Z,71.90
2022-11-29T14:49:45.286Z,65.78
2022-11-29T14:52:14.307Z,77.60
2022-11-29T14:54:58.484Z,77.43
2022-11-29T14:57:46.920Z,77.70
2022-11-29T15:00:16.477Z,70.38
2022-11-29T15:03:08.705Z,71.70
2022-11-29T15:05:46.141Z,75.35
2022-11-29T15:08:30.246Z,73.20
2022-11-29T15:11:17.721Z,71.97
2022-11-29T15:14:03.354Z,78.30
2022-11-29T15:16:43.051Z,76.72
2022-11-29T15:19:21.158Z,79.90
2022-11-29T15:21:55.982Z,68.60
2022-11-29T15:24:26.755Z,74.03
2022-11-29T15:26:59.400Z,72.53
2022-11-29T15:29:27.689Z,73.40
2022-11-29T15:31:57.343Z,72.32
2022-11-29T15:34:47.012Z,72.65
2022-11-29T15:37:35.490Z,71.22
2022-11-29T15:40:20.138Z,69.75
2022-11-29T15:42:54.978Z,74.85
2022-11-29T15:45:25.812Z,64.40
2022-11-29T15:47:52.370Z,77.07
2022-11-29T15:50:27.770Z,78.13
2022-11-29T15:53:00.929Z,71.03
2022-11-29T15:55:27.911Z,70.60
2022-11-29T15:57:56.537Z,75.25
2022-11-29T16:00:23.190Z,74.97
2022-11-29T16:02:56.494Z,77.72
2022-11-29T16:05:28.248Z,75.13
2022-11-29T16:08:01.856Z,73.32
2022-11-29T16:10:44.080Z,69.82
2022-11-29T16:13:25.663Z,64.05
2022-11-29T16:16:04.429Z,60.25
2022-11-29T16:18:30.828Z,70.43
2022-11-29T16:21:01.839Z,71.80
2022-11-29T16:23:41.385Z,76.60
2022-11-29T16:26:13.765Z,67.53
2022-11-29T16:28:46.537Z,65.95
2022-11-29T16:31:21.435Z,68.90
2022-11-29T16:33:50.926Z,72.28
2022-11-29T16:36:22.161Z,66.30
2022-11-29T16:38:54.193Z,63.25
2022-11-29T16:41:22.798Z,70.38
2022-11-29T16:43:53.179Z,68.50
2022-11-29T16:46:22.557Z,66.18
2022-11-29T16:48:49.882Z,62.60
2022-11-29T16:51:24.454Z,61.35
2022-11-29T16:53:52.215Z,68.90
2022-11-29T16:56:27.608Z,80.05
2022-11-29T16:59:16.966Z,82.50
2022-11-29T17:01:46.820Z,84.18
2022-11-29T17:04:13.171Z,93.32
2022-11-29T17:06:50.717Z,77.93
2022-11-29T17:09:24.791Z,88.60
2022-11-29T17:11:51.069Z,89.05
2022-11-29T17:14:17.379Z,297.55
2022-11-29T17:16:43.714Z,838.15
2022-11-29T17:19:12.210Z,697.03
2022-11-29T17:21:38.507Z,581.50
2022-11-29T17:24:05.235Z,475.65
2022-11-29T17:26:31.539Z,206.20
2022-11-29T17:28:57.916Z,264.23
2022-11-29T17:31:24.587Z,214.25
2022-11-29T17:33:51.139Z,185.05
2022-11-29T17:36:19.866Z,127.80
2022-11-29T17:38:47.139Z,158.25
2022-11-29T17:41:16.256Z,131.05
2022-11-29T17:43:42.674Z,82.28
2022-11-29T17:46:24.147Z,91.90
2022-11-29T17:48:51.016Z,100.85
2022-11-29T17:51:49.865Z,125.57
2022-11-29T17:54:07.519Z,118.30
2022-11-29T17:56:34.382Z,100.60
2022-11-29T17:59:02.679Z,84.25
2022-11-29T18:01:32.174Z,77.40
2022-11-29T18:04:01.087Z,70.18
2022-11-29T18:06:30.007Z,72.68
2022-11-29T18:08:58.921Z,66.00
2022-11-29T18:11:26.776Z,65.25
2022-11-29T18:13:54.486Z,70.88
2022-11-29T18:16:26.629Z,70.35
2022-11-29T18:19:04.421Z,71.13
2022-11-29T18:21:31.314Z,63.65
2022-11-29T18:24:01.702Z,69.85
2022-11-29T18:26:29.119Z,66.60
2022-11-29T18:28:55.652Z,61.95
2022-11-29T18:31:28.374Z,56.50
2022-11-29T18:33:57.285Z,65.20
2022-11-29T18:36:27.310Z,65.40
2022-11-29T18:38:58.940Z,62.88
2022-11-29T18:41:26.512Z,65.72
2022-11-29T18:44:01.377Z,61.50
2022-11-29T18:48:54.474Z,69.97
2022-11-29T18:51:20.789Z,68.15
2022-11-29T18:53:47.266Z,61.40
2022-11-29T18:56:16.522Z,59.85
2022-11-29T18:58:56.845Z,57.78
2022-11-29T19:01:27.578Z,62.00
2022-11-29T19:03:55.369Z,62.92
2022-11-29T19:06:28.097Z,56.35
2022-11-29T19:08:54.740Z,63.80
2022-11-29T19:11:23.529Z,59.60
2022-11-29T19:14:01.541Z,54.00
2022-11-29T19:16:29.530Z,58.20
2022-11-29T19:18:57.743Z,59.47
2022-11-29T19:21:26.143Z,56.13
2022-11-29T19:23:54.833Z,59.28
2022-11-29T19:26:22.093Z,59.10
2022-11-29T19:28:49.171Z,51.92
2022-11-29T19:31:18.145Z,55.03
2022-11-29T19:33:45.312Z,56.25
2022-11-29T19:36:19.272Z,50.33
2022-11-29T19:38:51.662Z,52.07
2022-11-29T19:41:22.625Z,52.97
2022-11-29T19:43:49.617Z,53.35
2022-11-29T19:46:21.992Z,48.15
2022-11-29T19:48:48.659Z,48.38
2022-11-29T19:51:16.053Z,43.38
2022-11-29T19:53:42.432Z,43.65
2022-11-29T19:56:11.797Z,47.85
2022-11-29T19:58:38.388Z,45.83
2022-11-29T20:01:09.524Z,46.13
2022-11-29T20:03:36.193Z,44.35
2022-11-29T20:06:03.260Z,46.97
2022-11-29T20:08:30.122Z,41.63
2022-11-29T20:10:56.609Z,47.22
2022-11-29T20:13:22.937Z,45.45
2022-11-29T20:15:49.355Z,40.40
2022-11-29T20:18:15.949Z,45.15
2022-11-29T20:20:42.270Z,46.45
2022-11-29T20:23:08.600Z,47.47
2022-11-29T20:25:34.953Z,47.60
2022-11-29T20:28:01.473Z,46.55
2022-11-29T20:30:27.800Z,48.67
2022-11-29T20:32:54.262Z,49.30
2022-11-29T20:35:20.788Z,47.55
2022-11-29T20:38:08.926Z,45.03
2022-11-29T20:41:03.004Z,50.38
2022-11-29T20:43:45.035Z,53.97
2022-11-29T20:46:11.688Z,48.33
2022-11-29T20:48:38.254Z,52.88
2022-11-29T20:51:05.223Z,52.20
2022-11-29T20:53:31.500Z,52.40
2022-11-29T20:55:58.224Z,52.00
2022-11-29T20:58:24.588Z,47.72
2022-11-29T21:00:50.939Z,50.50
2022-11-29T21:03:18.488Z,55.38
2022-11-29T21:05:45.726Z,49.05
2022-11-29T21:08:13.410Z,45.42
2022-11-29T21:10:39.809Z,46.30
2022-11-29T21:13:07.465Z,45.85
2022-11-29T21:15:34.254Z,48.75
2022-11-29T21:18:00.982Z,51.28
2022-11-29T21:20:27.575Z,42.30
2022-11-29T21:23:03.297Z,55.28
2022-11-29T21:25:29.679Z,51.20
2022-11-29T21:27:56.684Z,56.55
2022-11-29T21:30:24.599Z,50.88
2022-11-29T21:32:51.467Z,47.65
2022-11-29T21:35:18.055Z,58.25
2022-11-29T21:37:45.124Z,60.20
2022-11-29T21:40:13.950Z,63.00
2022-11-29T21:42:40.390Z,58.03
2022-11-29T21:45:11.807Z,61.10
2022-11-29T21:47:41.911Z,54.90
2022-11-29T21:50:08.678Z,48.53
2022-11-29T21:52:35.038Z,51.45
2022-11-29T21:55:01.608Z,58.20
2022-11-29T21:57:27.932Z,60.65
2022-11-29T21:59:54.268Z,53.20
2022-11-29T22:02:20.736Z,52.33
2022-11-29T22:04:47.319Z,52.60
2022-11-29T22:07:13.724Z,50.80
2022-11-29T22:09:40.116Z,53.13
2022-11-29T22:12:31.829Z,54.45
2022-11-29T22:14:52.992Z,53.67
2022-11-29T22:17:19.355Z,54.78
2022-11-29T22:19:45.680Z,56.40
2022-11-29T22:22:12.011Z,55.03
2022-11-29T22:24:38.353Z,54.55
2022-11-29T22:27:04.967Z,58.72
2022-11-29T22:29:31.306Z,57.53
2022-11-29T22:31:57.676Z,54.88
2022-11-29T22:34:24.122Z,59.65
2022-11-29T22:36:50.765Z,56.78
2022-11-29T22:39:17.083Z,62.72
2022-11-29T22:41:47.033Z,57.90
2022-11-29T22:44:17.082Z,62.55
2022-11-29T22:46:43.523Z,58.60
2022-11-29T22:49:09.881Z,59.13
2022-11-29T22:51:37.871Z,61.22
2022-11-29T22:54:07.054Z,53.13
2022-11-29T22:56:36.229Z,52.03
2022-11-29T22:59:03.851Z,52.30
2022-11-29T23:01:32.543Z,55.90
2022-11-29T23:04:01.317Z,51.90
2022-11-29T23:06:29.862Z,57.13
2022-11-29T23:09:02.812Z,49.58
2022-11-29T23:11:30.111Z,56.03
2022-11-29T23:13:56.573Z,54.90
2022-11-29T23:16:25.802Z,53.05
2022-11-29T23:18:53.391Z,57.13
2022-11-29T23:21:25.838Z,54.53
2022-11-29T23:23:56.306Z,50.13
2022-11-29T23:26:30.936Z,61.80
2022-11-29T23:28:58.268Z,55.30
2022-11-29T23:31:24.991Z,53.40
2022-11-29T23:33:51.446Z,64.45
2022-11-29T23:36:17.834Z,60.00
2022-11-29T23:38:44.260Z,62.20
2022-11-29T23:41:11.582Z,58.90
2022-11-29T23:43:39.824Z,59.72
2022-11-29T23:46:10.148Z,63.90
2022-11-29T23:48:36.482Z,62.25
2022-11-29T23:51:02.948Z,58.47
2022-11-29T23:53:29.614Z,65.82
2022-11-29T23:56:08.104Z,64.50
2022-11-29T23:58:35.595Z,65.43
